Time;durP1;ratioP1;P1;durP2;ratioP2;P2;SDS_P1;SDS_P2;PMS_P1;PMS_P2;Temp;Humidity;BMP_temperature;BMP_pressure;BME280_temperature;BME280_humidity;BME280_pressure;Samples;Min_cycle;Max_cycle;Signal;HPM_P1;HPM_P2
2021/09/22 00:00:28;;;;;;;;;;;15.10;99.90;;;;;;5069010;28;19920;-74
2021/09/22 00:03:32;;;;;;;;;;;15.10;99.90;;;;;;5069270;28;20248;-74
2021/09/22 00:06:36;;;;;;;;;;;15.10;99.90;;;;;;5072059;28;19927;-74
2021/09/22 00:09:40;;;;;;;;;;;15.10;99.90;;;;;;5073031;28;19935;-74
2021/09/22 00:12:47;;;;;;;;;;;15.00;99.90;;;;;;5072554;28;19927;-74
2021/09/22 00:15:52;;;;;;;;;;;14.90;99.90;;;;;;5073340;28;19920;-74
2021/09/22 00:18:57;;;;;;;;;;;14.90;99.90;;;;;;5069985;28;19939;-74
2021/09/22 00:22:01;;;;;;;;;;;14.90;99.90;;;;;;5072779;28;19920;-74
2021/09/22 00:25:06;;;;;;;;;;;14.90;99.90;;;;;;5072815;28;19923;-74
2021/09/22 00:28:09;;;;;;;;;;;14.90;99.90;;;;;;5072347;28;20378;-74
2021/09/22 00:31:13;;;;;;;;;;;14.90;99.90;;;;;;5060092;28;19920;-74
2021/09/22 00:34:17;;;;;;;;;;;14.90;99.90;;;;;;5072938;28;19923;-74
2021/09/22 00:37:21;;;;;;;;;;;14.80;99.90;;;;;;5067181;28;19931;-75
2021/09/22 00:40:25;;;;;;;;;;;14.80;99.90;;;;;;5071941;28;19935;-74
2021/09/22 00:43:29;;;;;;;;;;;14.80;99.90;;;;;;5072983;28;19920;-74
2021/09/22 00:46:33;;;;;;;;;;;14.70;99.90;;;;;;5071818;28;20382;-75
2021/09/22 00:49:37;;;;;;;;;;;14.60;99.90;;;;;;5071850;28;19919;-74
2021/09/22 00:52:41;;;;;;;;;;;14.50;99.90;;;;;;5060258;28;20286;-74
2021/09/22 00:55:45;;;;;;;;;;;14.60;99.90;;;;;;5072070;28;20378;-75
2021/09/22 00:58:49;;;;;;;;;;;14.50;99.90;;;;;;5071757;28;19919;-74
2021/09/22 01:01:53;;;;;;;;;;;14.50;99.90;;;;;;5071294;28;19935;-75
2021/09/22 01:04:57;;;;;;;;;;;14.50;99.90;;;;;;5051682;28;19936;-75
2021/09/22 01:08:03;;;;;;;;;;;14.50;99.90;;;;;;5055089;28;19948;-74
2021/09/22 01:11:07;;;;;;;;;;;14.50;99.90;;;;;;5054950;28;19948;-74
2021/09/22 01:14:12;;;;;;;;;;;14.40;99.90;;;;;;5072673;28;20377;-74
2021/09/22 01:17:19;;;;;;;;;;;14.40;99.90;;;;;;5070594;28;19924;-74
2021/09/22 01:20:27;;;;;;;;;;;14.40;99.90;;;;;;5058766;28;19920;-75
2021/09/22 01:23:31;;;;;;;;;;;14.40;99.90;;;;;;5072397;28;20386;-75
2021/09/22 01:26:41;;;;;;;;;;;14.40;99.90;;;;;;5067306;28;19923;-74
2021/09/22 01:29:47;;;;;;;;;;;14.30;99.90;;;;;;5058511;28;19991;-74
2021/09/22 01:32:53;;;;;;;;;;;14.30;99.90;;;;;;5070839;28;19935;-74
2021/09/22 01:36:01;;;;;;;;;;;14.30;99.90;;;;;;5058766;28;19920;-74
2021/09/22 01:39:06;;;;;;;;;;;14.30;99.90;;;;;;5062199;28;19943;-74
2021/09/22 01:42:10;;;;;;;;;;;14.20;99.90;;;;;;5070342;28;19935;-75
2021/09/22 01:45:15;;;;;;;;;;;14.20;99.90;;;;;;5038726;28;19928;-74
2021/09/22 01:48:21;;;;;;;;;;;14.30;99.90;;;;;;5055857;28;19920;-74
2021/09/22 01:51:31;;;;;;;;;;;14.20;99.90;;;;;;5053943;28;19920;-75
2021/09/22 01:55:02;;;;;;;;;;;14.20;99.90;;;;;;5071235;28;20382;-75
2021/09/22 01:58:07;;;;;;;;;;;14.20;99.90;;;;;;5055618;28;19923;-74
2021/09/22 02:01:32;;;;;;;;;;;14.10;99.90;;;;;;5070223;28;20325;-76
2021/09/22 02:04:42;;;;;;;;;;;14.10;99.90;;;;;;5069442;28;19928;-74
2021/09/22 02:07:51;;;;;;;;;;;14.00;99.90;;;;;;5038687;28;19987;-75
2021/09/22 02:11:01;;;;;;;;;;;14.00;99.90;;;;;;5066080;28;19939;-74
2021/09/22 02:14:07;;;;;;;;;;;14.00;99.90;;;;;;5057819;28;19919;-74
2021/09/22 02:17:18;;;;;;;;;;;14.00;99.90;;;;;;5058760;28;19912;-74
2021/09/22 02:20:24;;;;;;;;;;;14.00;99.90;;;;;;5069294;28;19924;-74
2021/09/22 02:23:39;;;;;;;;;;;13.90;99.90;;;;;;5068091;28;19913;-74
2021/09/22 02:26:44;;;;;;;;;;;13.90;99.90;;;;;;5057689;28;19943;-74
2021/09/22 02:29:53;;;;;;;;;;;14.00;99.90;;;;;;5057466;28;19931;-74
2021/09/22 02:32:57;;;;;;;;;;;14.00;99.90;;;;;;5061426;28;19920;-74
2021/09/22 02:36:04;;;;;;;;;;;14.00;99.90;;;;;;5069209;28;19921;-74
2021/09/22 02:39:25;;;;;;;;;;;13.90;99.90;;;;;;5038609;28;19936;-74
2021/09/22 02:42:29;;;;;;;;;;;13.90;99.90;;;;;;5066625;28;19919;-74
2021/09/22 02:45:33;;;;;;;;;;;13.80;99.90;;;;;;5045244;28;20458;-74
2021/09/22 02:48:37;;;;;;;;;;;13.80;99.90;;;;;;5069694;28;19917;-74
2021/09/22 02:51:41;;;;;;;;;;;13.80;99.90;;;;;;5057278;28;19923;-74
2021/09/22 02:54:45;;;;;;;;;;;13.70;99.90;;;;;;5069593;28;19920;-74
2021/09/22 02:57:54;;;;;;;;;;;13.70;99.90;;;;;;5058264;28;20300;-74
2021/09/22 03:00:58;;;;;;;;;;;13.60;99.90;;;;;;5067378;28;20394;-74
2021/09/22 03:04:02;;;;;;;;;;;13.60;99.90;;;;;;5068519;28;19920;-75
2021/09/22 03:07:08;;;;;;;;;;;13.60;99.90;;;;;;5058033;28;20400;-75
2021/09/22 03:10:12;;;;;;;;;;;13.60;99.90;;;;;;5057364;28;20312;-75
2021/09/22 03:13:17;;;;;;;;;;;13.60;99.90;;;;;;5068154;28;19919;-75
2021/09/22 03:16:21;;;;;;;;;;;13.60;99.90;;;;;;5069536;28;19924;-75
2021/09/22 03:19:25;;;;;;;;;;;13.60;99.90;;;;;;5050253;28;20278;-75
2021/09/22 03:22:30;;;;;;;;;;;13.60;99.90;;;;;;5048954;28;19939;-75
2021/09/22 03:25:52;;;;;;;;;;;13.60;99.90;;;;;;5042626;28;19924;-75
2021/09/22 03:28:56;;;;;;;;;;;13.50;99.90;;;;;;5070411;28;20305;-75
2021/09/22 03:32:01;;;;;;;;;;;13.40;99.90;;;;;;5061562;28;19916;-75
2021/09/22 03:35:07;;;;;;;;;;;13.30;99.90;;;;;;5056693;28;19924;-75
2021/09/22 03:38:11;;;;;;;;;;;13.40;99.90;;;;;;5070251;28;20291;-75
2021/09/22 03:41:14;;;;;;;;;;;13.30;99.90;;;;;;5070109;28;20469;-75
2021/09/22 03:44:19;;;;;;;;;;;13.30;99.90;;;;;;5070776;28;19939;-74
2021/09/22 03:47:24;;;;;;;;;;;13.20;99.90;;;;;;5061496;28;19920;-74
2021/09/22 03:50:29;;;;;;;;;;;13.10;99.90;;;;;;5053014;28;19920;-74
2021/09/22 03:53:59;;;;;;;;;;;13.00;99.90;;;;;;5056323;28;19935;-74
2021/09/22 03:57:03;;;;;;;;;;;12.90;99.90;;;;;;5060344;28;20355;-74
2021/09/22 04:00:08;;;;;;;;;;;12.90;99.90;;;;;;5072884;28;19935;-74
2021/09/22 04:03:17;;;;;;;;;;;12.80;99.90;;;;;;5072436;28;20294;-74
2021/09/22 04:06:21;;;;;;;;;;;12.80;99.90;;;;;;5071530;28;20680;-74
2021/09/22 04:09:26;;;;;;;;;;;12.90;99.90;;;;;;5060852;28;19935;-74
2021/09/22 04:12:31;;;;;;;;;;;13.00;99.90;;;;;;5057650;28;19920;-74
2021/09/22 04:15:36;;;;;;;;;;;13.00;99.90;;;;;;5059767;28;20275;-74
2021/09/22 04:18:40;;;;;;;;;;;13.00;99.90;;;;;;5060701;28;19920;-74
2021/09/22 04:21:44;;;;;;;;;;;13.00;99.90;;;;;;5060764;28;20291;-74
2021/09/22 04:24:48;;;;;;;;;;;13.00;99.90;;;;;;5059656;28;19928;-75
2021/09/22 04:27:52;;;;;;;;;;;13.00;99.90;;;;;;5072085;28;19923;-74
2021/09/22 04:31:16;;;;;;;;;;;13.00;99.90;;;;;;5061950;28;19923;-74
2021/09/22 04:34:38;;;;;;;;;;;13.00;99.90;;;;;;5071728;28;19919;-74
2021/09/22 04:38:01;;;;;;;;;;;12.90;99.90;;;;;;5072250;28;19944;-74
2021/09/22 04:41:23;;;;;;;;;;;12.80;99.90;;;;;;5072419;28;19924;-74
2021/09/22 04:44:46;;;;;;;;;;;12.80;99.90;;;;;;5072081;28;19920;-74
2021/09/22 04:48:08;;;;;;;;;;;12.70;99.90;;;;;;5071935;28;19913;-74
2021/09/22 04:51:37;;;;;;;;;;;12.60;99.90;;;;;;5059155;28;19919;-74
2021/09/22 04:55:00;;;;;;;;;;;12.40;99.90;;;;;;5071973;28;20289;-74
2021/09/22 04:58:23;;;;;;;;;;;12.40;99.90;;;;;;5072621;28;19949;-74
2021/09/22 05:01:47;;;;;;;;;;;12.30;99.90;;;;;;5068487;28;20267;-74
2021/09/22 05:05:09;;;;;;;;;;;12.30;99.90;;;;;;5071159;28;19924;-74
2021/09/22 05:08:32;;;;;;;;;;;12.30;99.90;;;;;;5071769;28;19919;-74
2021/09/22 05:11:54;;;;;;;;;;;12.40;99.90;;;;;;5072144;28;19923;-74
2021/09/22 05:15:17;;;;;;;;;;;12.50;99.90;;;;;;5068863;28;19919;-74
2021/09/22 05:18:39;;;;;;;;;;;12.50;99.90;;;;;;5071527;28;19919;-74
2021/09/22 05:22:01;;;;;;;;;;;12.50;99.90;;;;;;5071913;28;19935;-74
2021/09/22 05:25:26;;;;;;;;;;;12.60;99.90;;;;;;5035048;28;19927;-74
2021/09/22 05:28:49;;;;;;;;;;;12.60;99.90;;;;;;5069535;28;19927;-74
2021/09/22 05:32:24;;;;;;;;;;;12.70;99.90;;;;;;5057406;28;19923;-74
2021/09/22 05:35:47;;;;;;;;;;;12.80;99.90;;;;;;5070888;28;19939;-74
2021/09/22 05:39:11;;;;;;;;;;;12.80;99.90;;;;;;5071976;28;19919;-74
2021/09/22 05:42:33;;;;;;;;;;;12.80;99.90;;;;;;5054425;28;20322;-74
2021/09/22 05:45:56;;;;;;;;;;;12.70;99.90;;;;;;5070509;28;19923;-74
2021/09/22 05:49:18;;;;;;;;;;;12.70;99.90;;;;;;5071096;28;19982;-74
2021/09/22 05:52:41;;;;;;;;;;;14.00;99.90;;;;;;5071518;28;19924;-74
2021/09/22 05:56:04;;;;;;;;;;;17.90;99.90;;;;;;5050970;28;19920;-74
2021/09/22 05:59:27;;;;;;;;;;;21.40;99.90;;;;;;5067045;28;20371;-75
2021/09/22 06:02:49;;;;;;;;;;;23.60;99.90;;;;;;5069509;28;20410;-74
2021/09/22 06:06:12;;;;;;;;;;;25.30;97.20;;;;;;5066084;28;19916;-74
2021/09/22 06:09:35;;;;;;;;;;;26.50;95.30;;;;;;5069059;28;19919;-74
2021/09/22 06:13:04;;;;;;;;;;;27.50;92.30;;;;;;5058390;28;20383;-74
2021/09/22 06:16:07;;;;;;;;;;;27.90;91.30;;;;;;5067131;28;20414;-74
2021/09/22 06:19:11;;;;;;;;;;;28.60;90.60;;;;;;5068846;28;19936;-74
2021/09/22 06:22:22;;;;;;;;;;;29.40;88.20;;;;;;5069265;28;19919;-75
2021/09/22 06:25:26;;;;;;;;;;;28.30;85.70;;;;;;5057324;28;19916;-75
2021/09/22 06:28:30;;;;;;;;;;;21.70;94.00;;;;;;5069895;28;20002;-75
2021/09/22 06:31:37;;;;;;;;;;;20.90;97.40;;;;;;5069070;28;20242;-75
2021/09/22 06:34:57;;;;;;;;;;;21.20;98.40;;;;;;5062319;28;19935;-75
2021/09/22 06:38:15;;;;;;;;;;;23.20;97.00;;;;;;5068537;28;19912;-75
2021/09/22 06:41:29;;;;;;;;;;;25.50;94.30;;;;;;5066949;28;19935;-75
2021/09/22 06:44:33;;;;;;;;;;;27.50;92.40;;;;;;5065223;28;19927;-75
2021/09/22 06:47:38;;;;;;;;;;;29.00;90.30;;;;;;5064651;28;20029;-75
2021/09/22 06:50:43;;;;;;;;;;;29.30;88.20;;;;;;5062410;28;19917;-75
2021/09/22 06:53:47;;;;;;;;;;;30.00;86.60;;;;;;5062743;28;19927;-75
2021/09/22 06:56:51;;;;;;;;;;;30.40;85.10;;;;;;5064604;28;19924;-75
2021/09/22 06:59:56;;;;;;;;;;;30.90;83.80;;;;;;5069747;28;20286;-75
2021/09/22 07:03:01;;;;;;;;;;;31.40;81.10;;;;;;5068292;28;20397;-75
2021/09/22 07:06:05;;;;;;;;;;;31.30;79.30;;;;;;5067337;28;19924;-75
2021/09/22 07:09:10;;;;;;;;;;;31.30;78.80;;;;;;5069720;28;19928;-75
2021/09/22 07:12:14;;;;;;;;;;;29.60;79.60;;;;;;5056224;28;19924;-75
2021/09/22 07:15:18;;;;;;;;;;;26.90;84.10;;;;;;5065457;28;19919;-75
2021/09/22 07:18:22;;;;;;;;;;;23.80;90.30;;;;;;5074086;28;19951;-74
2021/09/22 07:21:28;;;;;;;;;;;22.60;91.90;;;;;;5066121;28;19919;-74
2021/09/22 07:24:32;;;;;;;;;;;23.40;91.90;;;;;;5067153;28;19935;-75
2021/09/22 07:27:39;;;;;;;;;;;25.20;89.30;;;;;;5060044;28;19923;-74
2021/09/22 07:30:43;;;;;;;;;;;25.90;87.60;;;;;;5058598;28;19919;-75
2021/09/22 07:33:47;;;;;;;;;;;26.90;85.50;;;;;;5067676;28;19919;-75
2021/09/22 07:36:53;;;;;;;;;;;27.30;83.80;;;;;;5070466;28;19923;-75
2021/09/22 07:39:57;;;;;;;;;;;28.20;81.00;;;;;;5072452;28;20287;-75
2021/09/22 07:43:01;;;;;;;;;;;27.50;82.30;;;;;;5068502;28;19916;-75
2021/09/22 07:46:05;;;;;;;;;;;27.50;82.70;;;;;;5070071;28;19999;-75
2021/09/22 07:49:09;;;;;;;;;;;28.60;81.40;;;;;;5070276;28;19919;-75
2021/09/22 07:52:13;;;;;;;;;;;29.60;80.50;;;;;;5072482;28;19919;-75
2021/09/22 07:55:18;;;;;;;;;;;29.10;80.30;;;;;;5073543;28;19920;-75
2021/09/22 07:58:22;;;;;;;;;;;31.50;76.50;;;;;;5053297;28;19920;-75
2021/09/22 08:01:26;;;;;;;;;;;31.70;75.10;;;;;;5072145;28;19913;-75
2021/09/22 08:04:30;;;;;;;;;;;31.20;74.40;;;;;;5060200;28;19913;-75
2021/09/22 08:07:34;;;;;;;;;;;33.10;72.80;;;;;;5059267;28;20027;-75
2021/09/22 08:10:46;;;;;;;;;;;33.40;70.70;;;;;;5053220;28;19920;-75
2021/09/22 08:13:51;;;;;;;;;;;34.50;68.50;;;;;;5066532;28;19923;-75
2021/09/22 08:16:56;;;;;;;;;;;33.40;67.50;;;;;;5069656;28;19916;-76
2021/09/22 08:20:00;;;;;;;;;;;32.70;68.10;;;;;;5069344;28;19975;-75
2021/09/22 08:23:04;;;;;;;;;;;30.20;71.10;;;;;;5066564;28;20386;-75
2021/09/22 08:26:08;;;;;;;;;;;29.00;73.00;;;;;;5072362;28;20287;-74
2021/09/22 08:29:12;;;;;;;;;;;31.90;72.10;;;;;;5074019;28;19935;-74
2021/09/22 08:32:18;;;;;;;;;;;31.40;70.20;;;;;;5073112;28;19913;-74
2021/09/22 08:35:22;;;;;;;;;;;34.10;68.50;;;;;;5070807;28;19924;-74
2021/09/22 08:38:26;;;;;;;;;;;34.10;65.70;;;;;;5062628;28;20686;-74
2021/09/22 08:41:35;;;;;;;;;;;34.40;66.80;;;;;;5072319;28;19920;-75
2021/09/22 08:44:41;;;;;;;;;;;31.90;69.50;;;;;;5065257;28;20287;-71
2021/09/22 08:47:49;;;;;;;;;;;31.40;70.30;;;;;;5066714;28;20273;-71
2021/09/22 08:50:54;;;;;;;;;;;33.80;69.30;;;;;;5062190;28;20390;-75
2021/09/22 08:53:59;;;;;;;;;;;35.50;66.90;;;;;;5060533;28;19935;-74
2021/09/22 08:57:04;;;;;;;;;;;35.70;66.20;;;;;;5046360;28;20303;-75
2021/09/22 09:00:09;;;;;;;;;;;36.60;64.20;;;;;;5060355;28;19913;-72
2021/09/22 09:03:40;;;;;;;;;;;37.90;63.70;;;;;;5048298;28;19904;-73
2021/09/22 09:06:46;;;;;;;;;;;38.50;62.00;;;;;;5063693;28;20425;-75
2021/09/22 09:10:00;;;;;;;;;;;38.80;60.40;;;;;;5045281;28;19927;-75
2021/09/22 09:13:09;;;;;;;;;;;40.80;58.60;;;;;;5073044;28;19916;-75
2021/09/22 09:16:17;;;;;;;;;;;42.00;55.90;;;;;;5071168;28;19929;-76
2021/09/22 09:19:23;;;;;;;;;;;39.30;57.10;;;;;;5070906;28;19927;-76
2021/09/22 09:22:27;;;;;;;;;;;39.90;57.10;;;;;;5060805;28;20382;-73
2021/09/22 09:25:37;;;;;;;;;;;37.10;58.30;;;;;;5069571;28;19924;-74
2021/09/22 09:28:41;;;;;;;;;;;34.20;60.00;;;;;;5070970;28;20393;-74
2021/09/22 09:31:45;;;;;;;;;;;34.90;60.30;;;;;;5067067;28;19920;-71
2021/09/22 09:34:55;;;;;;;;;;;36.90;58.90;;;;;;5062980;28;19923;-72
2021/09/22 09:37:59;;;;;;;;;;;39.30;55.40;;;;;;5069819;28;20279;-72
2021/09/22 09:41:03;;;;;;;;;;;40.60;54.70;;;;;;5073799;28;20358;-72
2021/09/22 09:44:09;;;;;;;;;;;40.50;53.20;;;;;;5072601;28;19920;-71
2021/09/22 09:47:19;;;;;;;;;;;40.50;52.70;;;;;;5067066;28;19927;-73
2021/09/22 09:50:24;;;;;;;;;;;42.40;53.70;;;;;;5071094;28;19931;-72
2021/09/22 09:53:31;;;;;;;;;;;44.40;51.60;;;;;;5047339;28;20118;-72
2021/09/22 09:56:38;;;;;;;;;;;42.50;50.20;;;;;;5064733;28;19924;-72
2021/09/22 09:59:49;;;;;;;;;;;40.80;51.40;;;;;;5069104;28;20003;-74
2021/09/22 10:03:06;;;;;;;;;;;36.50;53.20;;;;;;5074104;28;20267;-73
2021/09/22 10:06:11;;;;;;;;;;;39.30;52.50;;;;;;5068506;28;19931;-73
2021/09/22 10:09:17;;;;;;;;;;;42.00;51.70;;;;;;5057137;28;19928;-73
2021/09/22 10:12:21;;;;;;;;;;;42.90;49.80;;;;;;5072799;28;20186;-72
2021/09/22 10:15:28;;;;;;;;;;;41.70;50.80;;;;;;5070960;28;19916;-73
2021/09/22 10:18:32;;;;;;;;;;;38.20;51.40;;;;;;5056726;28;20295;-73
2021/09/22 10:21:40;;;;;;;;;;;34.50;56.00;;;;;;5052765;28;19912;-72
2021/09/22 10:24:20;;;;;;;;;;;35.40;56.50;;;;;;5126765;27;20016;-55
2021/09/22 10:26:57;;;;;;;;;;;35.20;56.20;;;;;;5086706;27;19948;-53
2021/09/22 10:29:37;;;;;;;;;;;36.10;55.70;;;;;;5105975;27;20009;-56
2021/09/22 10:32:32;;;;;;;;;;;37.40;54.20;;;;;;5108336;27;20365;-54
2021/09/22 10:35:25;;;;;;;;;;;38.60;52.10;;;;;;5091159;27;20036;-57
2021/09/22 10:38:19;;;;;;;;;;;40.10;52.20;;;;;;5101800;27;20005;-55
2021/09/22 10:40:59;;;;;;;;;;;41.70;50.60;;;;;;4994984;27;19957;-55
2021/09/22 10:43:38;;;;;;;;;;;37.10;52.50;;;;;;5098360;27;20406;-56
2021/09/22 10:46:18;;;;;;;;;;;37.50;53.40;;;;;;5088015;27;19974;-53
2021/09/22 10:48:59;;;;;;;;;;;36.90;53.40;;;;;;5086077;28;20001;-55
2021/09/22 10:51:41;;;;;;;;;;;35.70;54.70;;;;;;5107294;27;19992;-52
2021/09/22 10:54:21;;;;;;;;;;;34.80;55.90;;;;;;5101810;27;19974;-56
2021/09/22 10:57:00;;;;;;;;;;;33.90;56.40;;;;;;5104784;27;19951;-55
2021/09/22 10:59:39;;;;;;;;;;;33.20;57.20;;;;;;5001572;28;20415;-55
2021/09/22 11:02:16;;;;;;;;;;;32.80;57.50;;;;;;5105827;27;19981;-51
2021/09/22 11:04:59;;;;;;;;;;;35.50;55.60;;;;;;5124282;27;19992;-56
2021/09/22 11:08:04;;;;;;;;;;;38.60;54.20;;;;;;5100656;27;19988;-56
2021/09/22 11:10:46;;;;;;;;;;;41.30;51.70;;;;;;5126999;27;20020;-54
2021/09/22 11:13:33;;;;;;;;;;;36.90;51.10;;;;;;5108626;27;20007;-53
2021/09/22 11:16:15;;;;;;;;;;;36.20;52.80;;;;;;5084329;27;20005;-55
2021/09/22 11:18:56;;;;;;;;;;;36.20;54.30;;;;;;5065933;28;19944;-50
2021/09/22 11:21:37;;;;;;;;;;;36.90;54.10;;;;;;5101295;27;19971;-53
2021/09/22 11:24:15;;;;;;;;;;;37.00;52.60;;;;;;4999765;27;19979;-54
2021/09/22 11:26:58;;;;;;;;;;;35.90;53.30;;;;;;5090711;27;19966;-56
2021/09/22 11:29:36;;;;;;;;;;;35.30;53.30;;;;;;5100424;27;20005;-56
2021/09/22 11:32:27;;;;;;;;;;;33.10;53.80;;;;;;5097625;27;20000;-56
2021/09/22 11:35:10;;;;;;;;;;;33.40;56.00;;;;;;5105237;27;20008;-55
2021/09/22 11:37:52;;;;;;;;;;;33.40;57.70;;;;;;5124136;27;20012;-52
2021/09/22 11:40:34;;;;;;;;;;;34.60;56.30;;;;;;5087199;27;20007;-56
2021/09/22 11:43:19;;;;;;;;;;;35.50;55.00;;;;;;5086409;27;19940;-56
2021/09/22 11:46:00;;;;;;;;;;;37.00;54.50;;;;;;5109255;27;20001;-55
2021/09/22 11:48:39;;;;;;;;;;;38.40;52.30;;;;;;5095743;27;20062;-54
2021/09/22 11:51:17;;;;;;;;;;;38.00;51.10;;;;;;5042818;28;20024;-51
2021/09/22 11:53:55;;;;;;;;;;;39.40;51.60;;;;;;5077238;27;20066;-55
2021/09/22 11:56:33;;;;;;;;;;;41.20;50.70;;;;;;5080107;27;19964;-52
2021/09/22 11:59:11;;;;;;;;;;;43.10;49.70;;;;;;5086056;27;19967;-58
2021/09/22 12:01:53;;;;;;;;;;;44.00;48.60;;;;;;5084752;27;20009;-54
2021/09/22 12:04:32;;;;;;;;;;;43.90;47.60;;;;;;5002639;28;20002;-53
2021/09/22 12:07:11;;;;;;;;;;;43.60;47.80;;;;;;5085349;27;20029;-55
2021/09/22 12:09:49;;;;;;;;;;;41.20;47.70;;;;;;5062104;28;19944;-55
2021/09/22 12:12:29;;;;;;;;;;;36.80;50.40;;;;;;5085757;27;20413;-54
2021/09/22 12:15:08;;;;;;;;;;;38.60;50.80;;;;;;5090613;27;20001;-56
2021/09/22 12:17:45;;;;;;;;;;;39.90;50.50;;;;;;5106878;27;19997;-55
2021/09/22 12:20:23;;;;;;;;;;;38.60;50.80;;;;;;5126690;27;19992;-55
2021/09/22 12:23:04;;;;;;;;;;;37.40;49.50;;;;;;5065274;28;19940;-53
2021/09/22 12:25:41;;;;;;;;;;;38.10;50.90;;;;;;5127462;27;20401;-51
2021/09/22 12:28:24;;;;;;;;;;;39.00;50.20;;;;;;5014273;28;19975;-54
2021/09/22 12:31:10;;;;;;;;;;;39.10;51.00;;;;;;5127718;27;20458;-53
2021/09/22 12:33:49;;;;;;;;;;;39.50;51.10;;;;;;5105647;27;19944;-52
2021/09/22 12:36:27;;;;;;;;;;;40.50;50.30;;;;;;5106048;27;20012;-57
2021/09/22 12:39:05;;;;;;;;;;;41.70;49.40;;;;;;5086959;28;20004;-54
2021/09/22 12:42:10;;;;;;;;;;;40.40;49.80;;;;;;5126846;27;20003;-56
2021/09/22 12:44:52;;;;;;;;;;;41.30;49.30;;;;;;5102336;27;19951;-54
2021/09/22 12:47:31;;;;;;;;;;;40.70;48.90;;;;;;5100876;27;19956;-56
2021/09/22 12:50:10;;;;;;;;;;;34.80;51.40;;;;;;5085151;27;19940;-55
2021/09/22 12:52:49;;;;;;;;;;;32.60;55.60;;;;;;5106538;27;19989;-57
2021/09/22 12:55:29;;;;;;;;;;;33.50;55.00;;;;;;5125956;27;20019;-54
2021/09/22 12:58:08;;;;;;;;;;;32.70;55.80;;;;;;5148605;27;19996;-57
2021/09/22 13:00:49;;;;;;;;;;;31.40;56.70;;;;;;5088129;27;20001;-56
2021/09/22 13:03:27;;;;;;;;;;;30.80;57.10;;;;;;5106017;27;19963;-56
2021/09/22 13:06:15;;;;;;;;;;;34.10;55.60;;;;;;5066170;27;19956;-55
2021/09/22 13:08:57;;;;;;;;;;;36.30;52.70;;;;;;5104474;27;20008;-53
2021/09/22 13:11:35;;;;;;;;;;;34.00;53.80;;;;;;5085341;27;19997;-56
2021/09/22 13:14:16;;;;;;;;;;;33.80;53.90;;;;;;5124970;27;20000;-57
2021/09/22 13:16:57;;;;;;;;;;;34.90;54.10;;;;;;5086657;27;19959;-58
2021/09/22 13:19:35;;;;;;;;;;;35.60;53.50;;;;;;5106780;27;19947;-55
2021/09/22 13:22:12;;;;;;;;;;;36.90;53.20;;;;;;5064871;28;19952;-56
2021/09/22 13:24:51;;;;;;;;;;;38.40;52.10;;;;;;5106905;27;20005;-58
2021/09/22 13:27:29;;;;;;;;;;;39.70;50.90;;;;;;5106189;27;20415;-55
2021/09/22 13:30:07;;;;;;;;;;;37.90;50.80;;;;;;5003514;28;20472;-58
2021/09/22 13:32:49;;;;;;;;;;;34.50;51.70;;;;;;5107051;27;19997;-55
2021/09/22 13:35:27;;;;;;;;;;;34.50;54.40;;;;;;4991990;28;19957;-57
2021/09/22 13:38:05;;;;;;;;;;;33.80;54.60;;;;;;5003430;28;20413;-52
2021/09/22 13:40:43;;;;;;;;;;;32.50;54.30;;;;;;5105222;27;20443;-55
2021/09/22 13:43:25;;;;;;;;;;;33.30;55.10;;;;;;5107026;27;20020;-53
2021/09/22 13:46:03;;;;;;;;;;;33.90;54.60;;;;;;5107068;27;19939;-50
2021/09/22 13:48:41;;;;;;;;;;;31.60;55.80;;;;;;5002343;28;20375;-54
2021/09/22 13:51:19;;;;;;;;;;;30.50;57.00;;;;;;5005134;28;20460;-51
2021/09/22 13:53:57;;;;;;;;;;;32.60;56.80;;;;;;5126337;27;19955;-55
2021/09/22 13:56:36;;;;;;;;;;;34.30;55.30;;;;;;4983183;28;20007;-51
2021/09/22 13:59:14;;;;;;;;;;;35.80;53.20;;;;;;5002533;28;19957;-58
2021/09/22 14:01:52;;;;;;;;;;;36.70;53.60;;;;;;5106296;27;20004;-56
2021/09/22 14:04:30;;;;;;;;;;;37.60;53.30;;;;;;5107122;27;20415;-54
2021/09/22 14:07:08;;;;;;;;;;;37.10;52.10;;;;;;5085847;28;19952;-56
2021/09/22 14:09:46;;;;;;;;;;;35.70;52.90;;;;;;5107240;27;20012;-54
2021/09/22 14:12:25;;;;;;;;;;;36.20;54.10;;;;;;5126508;27;20000;-55
2021/09/22 14:15:04;;;;;;;;;;;37.50;53.40;;;;;;5122214;27;20008;-55
2021/09/22 14:17:41;;;;;;;;;;;38.20;52.90;;;;;;5105249;27;20012;-56
2021/09/22 14:20:20;;;;;;;;;;;36.70;52.90;;;;;;5106714;27;19939;-54
2021/09/22 14:22:58;;;;;;;;;;;35.90;54.30;;;;;;5105416;27;19952;-56
2021/09/22 14:25:36;;;;;;;;;;;36.00;54.40;;;;;;5102804;27;20382;-57
2021/09/22 14:28:15;;;;;;;;;;;35.00;55.20;;;;;;5122980;27;20454;-54
2021/09/22 14:30:54;;;;;;;;;;;33.20;57.10;;;;;;5085739;27;19997;-56
2021/09/22 14:33:32;;;;;;;;;;;33.50;57.20;;;;;;5105645;27;20001;-52
2021/09/22 14:36:10;;;;;;;;;;;33.50;57.00;;;;;;5098369;27;19952;-56
2021/09/22 14:38:48;;;;;;;;;;;33.40;57.20;;;;;;5105675;27;19956;-55
2021/09/22 14:41:27;;;;;;;;;;;32.80;57.50;;;;;;5086388;27;20024;-55
2021/09/22 14:44:05;;;;;;;;;;;33.10;57.60;;;;;;5126133;27;20028;-55
2021/09/22 14:46:43;;;;;;;;;;;33.30;57.90;;;;;;5094827;27;19944;-52
2021/09/22 14:49:21;;;;;;;;;;;33.40;57.20;;;;;;5107091;27;20450;-52
2021/09/22 14:51:59;;;;;;;;;;;33.00;57.80;;;;;;4994743;28;20404;-52
2021/09/22 14:54:37;;;;;;;;;;;32.50;57.90;;;;;;5107209;27;19973;-55
2021/09/22 14:57:16;;;;;;;;;;;31.90;58.50;;;;;;5104702;27;20021;-56
2021/09/22 14:59:54;;;;;;;;;;;31.20;59.50;;;;;;5003516;28;20002;-57
2021/09/22 15:02:32;;;;;;;;;;;31.00;60.10;;;;;;5126055;27;20007;-53
2021/09/22 15:05:10;;;;;;;;;;;30.60;60.70;;;;;;5098620;27;20009;-53
2021/09/22 15:07:49;;;;;;;;;;;29.90;61.40;;;;;;5107631;27;19955;-53
2021/09/22 15:10:27;;;;;;;;;;;29.90;61.50;;;;;;5127435;27;20004;-52
2021/09/22 15:13:05;;;;;;;;;;;29.60;62.50;;;;;;5106371;27;20000;-51
2021/09/22 15:15:43;;;;;;;;;;;29.40;62.60;;;;;;5106705;27;20222;-53
2021/09/22 15:18:21;;;;;;;;;;;29.40;62.60;;;;;;5106654;27;19944;-55
2021/09/22 15:21:00;;;;;;;;;;;29.00;62.90;;;;;;5107397;27;20012;-51
2021/09/22 15:23:38;;;;;;;;;;;28.90;63.50;;;;;;5106158;27;19959;-53
2021/09/22 15:26:16;;;;;;;;;;;28.80;63.80;;;;;;5003907;28;20369;-55
2021/09/22 15:28:54;;;;;;;;;;;28.80;63.90;;;;;;5127654;27;20458;-56
2021/09/22 15:31:33;;;;;;;;;;;28.70;63.80;;;;;;5106332;27;20004;-54
2021/09/22 15:34:11;;;;;;;;;;;28.40;64.10;;;;;;5107904;27;20004;-56
2021/09/22 15:36:49;;;;;;;;;;;28.40;65.10;;;;;;5106216;27;19996;-56
2021/09/22 15:39:27;;;;;;;;;;;28.20;64.70;;;;;;5087610;27;20001;-53
2021/09/22 15:42:05;;;;;;;;;;;28.20;65.00;;;;;;5106011;27;20130;-52
2021/09/22 15:44:43;;;;;;;;;;;28.10;65.00;;;;;;5066780;28;20013;-54
2021/09/22 15:47:22;;;;;;;;;;;27.90;66.10;;;;;;5128178;27;20004;-52
2021/09/22 15:50:00;;;;;;;;;;;27.70;65.90;;;;;;5106996;27;19992;-53
2021/09/22 15:52:38;;;;;;;;;;;27.60;66.30;;;;;;5107433;27;20008;-54
2021/09/22 15:55:17;;;;;;;;;;;27.40;66.60;;;;;;5106273;27;19951;-56
2021/09/22 15:57:55;;;;;;;;;;;27.30;67.10;;;;;;5106751;27;20012;-53
2021/09/22 16:00:33;;;;;;;;;;;27.20;67.30;;;;;;5003375;28;20018;-54
2021/09/22 16:03:11;;;;;;;;;;;27.10;67.60;;;;;;5106071;27;20423;-57
2021/09/22 16:05:49;;;;;;;;;;;27.00;67.70;;;;;;5107505;27;20358;-52
2021/09/22 16:08:27;;;;;;;;;;;26.90;67.90;;;;;;5127363;27;20020;-52
2021/09/22 16:11:06;;;;;;;;;;;26.80;68.10;;;;;;5003968;28;19975;-55
2021/09/22 16:13:44;;;;;;;;;;;26.60;68.50;;;;;;5126857;27;19996;-55
2021/09/22 16:16:20;;;;;;;;;;;26.50;68.90;;;;;;5077834;27;2060106;-55
2021/09/22 16:18:58;;;;;;;;;;;26.30;69.60;;;;;;5067269;28;19994;-53
2021/09/22 16:21:37;;;;;;;;;;;26.20;69.60;;;;;;5065914;28;19948;-52
2021/09/22 16:24:15;;;;;;;;;;;26.00;70.10;;;;;;5003715;28;20006;-52
2021/09/22 16:26:53;;;;;;;;;;;25.80;70.90;;;;;;5003136;28;19975;-49
2021/09/22 16:29:31;;;;;;;;;;;25.60;71.00;;;;;;5128126;27;20028;-52
2021/09/22 16:32:09;;;;;;;;;;;25.00;71.60;;;;;;5086899;28;19956;-55
2021/09/22 16:34:48;;;;;;;;;;;24.70;72.40;;;;;;5085956;27;19940;-53
2021/09/22 16:37:26;;;;;;;;;;;24.40;72.00;;;;;;5108354;27;20013;-51
2021/09/22 16:40:05;;;;;;;;;;;24.10;72.80;;;;;;5106603;27;19951;-52
2021/09/22 16:42:47;;;;;;;;;;;23.90;73.50;;;;;;5106963;27;20400;-54
2021/09/22 16:45:25;;;;;;;;;;;23.30;74.60;;;;;;5003339;28;20030;-51
2021/09/22 16:48:04;;;;;;;;;;;23.30;75.40;;;;;;5106573;27;20414;-53
2021/09/22 16:50:42;;;;;;;;;;;23.30;75.80;;;;;;5067147;28;20001;-53
2021/09/22 16:53:20;;;;;;;;;;;23.10;76.00;;;;;;5106317;27;19939;-50
2021/09/22 16:55:58;;;;;;;;;;;23.00;76.30;;;;;;5107404;27;19948;-52
2021/09/22 16:58:37;;;;;;;;;;;23.00;76.40;;;;;;5107200;27;19977;-56
2021/09/22 17:01:14;;;;;;;;;;;22.90;76.60;;;;;;5106559;27;19958;-55
2021/09/22 17:03:53;;;;;;;;;;;22.90;77.20;;;;;;5127899;27;19996;-52